sensor_id;sensor_type;location;lat;lon;timestamp;pressure;altitude;pressure_sealevel;temperature;humidity
24031;BME280;12240;51.142;22.486;2022-12-26T00:01:58;99882.59;;;2.42;100.00
24031;BME280;12240;51.142;22.486;2022-12-26T00:04:28;99877.34;;;2.42;100.00
24031;BME280;12240;51.142;22.486;2022-12-26T00:07:16;99816.81;;;2.13;100.00
24031;BME280;12240;51.142;22.486;2022-12-26T00:09:44;99849.47;;;2.39;100.00
24031;BME280;12240;51.142;22.486;2022-12-26T00:12:13;99861.66;;;2.40;100.00
24031;BME280;12240;51.142;22.486;2022-12-26T00:14:42;99839.13;;;2.36;100.00
24031;BME280;12240;51.142;22.486;2022-12-26T00:17:11;99842.69;;;2.35;100.00
24031;BME280;12240;51.142;22.486;2022-12-26T00:19:40;99848.72;;;2.37;100.00
24031;BME280;12240;51.142;22.486;2022-12-26T00:22:09;99850.00;;;2.30;100.00
24031;BME280;12240;51.142;22.486;2022-12-26T00:24:38;99818.66;;;2.27;100.00
24031;BME280;12240;51.142;22.486;2022-12-26T00:27:07;99861.59;;;2.56;100.00
24031;BME280;12240;51.142;22.486;2022-12-26T00:29:35;99859.91;;;2.55;100.00
24031;BME280;12240;51.142;22.486;2022-12-26T00:32:05;99861.50;;;2.57;100.00
24031;BME280;12240;51.142;22.486;2022-12-26T00:34:35;99858.88;;;2.57;100.00
24031;BME280;12240;51.142;22.486;2022-12-26T00:37:03;99855.69;;;2.52;100.00
24031;BME280;12240;51.142;22.486;2022-12-26T00:39:32;99858.13;;;2.55;100.00
24031;BME280;12240;51.142;22.486;2022-12-26T00:42:01;99855.31;;;2.58;100.00
24031;BME280;12240;51.142;22.486;2022-12-26T00:44:30;99854.28;;;2.61;100.00
24031;BME280;12240;51.142;22.486;2022-12-26T00:46:59;99822.16;;;2.42;100.00
24031;BME280;12240;51.142;22.486;2022-12-26T00:49:28;99808.53;;;2.35;100.00
24031;BME280;12240;51.142;22.486;2022-12-26T00:52:17;99856.06;;;2.60;100.00
24031;BME280;12240;51.142;22.486;2022-12-26T00:54:48;99862.56;;;2.69;100.00
24031;BME280;12240;51.142;22.486;2022-12-26T00:57:16;99861.53;;;2.71;100.00
24031;BME280;12240;51.142;22.486;2022-12-26T00:59:45;99797.53;;;2.42;100.00
24031;BME280;12240;51.142;22.486;2022-12-26T01:02:14;99844.72;;;2.74;100.00
24031;BME280;12240;51.142;22.486;2022-12-26T01:05:04;99836.72;;;2.75;100.00
24031;BME280;12240;51.142;22.486;2022-12-26T01:07:35;99790.06;;;2.51;100.00
24031;BME280;12240;51.142;22.486;2022-12-26T01:10:24;99824.44;;;2.76;100.00
24031;BME280;12240;51.142;22.486;2022-12-26T01:12:53;99796.25;;;2.64;100.00
24031;BME280;12240;51.142;22.486;2022-12-26T01:15:22;99800.13;;;2.72;100.00
24031;BME280;12240;51.142;22.486;2022-12-26T01:17:51;99799.91;;;2.75;100.00
24031;BME280;12240;51.142;22.486;2022-12-26T01:20:20;99786.22;;;2.70;100.00
24031;BME280;12240;51.142;22.486;2022-12-26T01:22:49;99798.06;;;2.77;100.00
24031;BME280;12240;51.142;22.486;2022-12-26T01:25:22;99787.81;;;2.73;100.00
24031;BME280;12240;51.142;22.486;2022-12-26T01:27:54;99769.31;;;2.60;100.00
24031;BME280;12240;51.142;22.486;2022-12-26T01:30:23;99778.41;;;2.69;100.00
24031;BME280;12240;51.142;22.486;2022-12-26T01:32:52;99725.94;;;2.39;100.00
24031;BME280;12240;51.142;22.486;2022-12-26T01:35:21;99779.28;;;2.69;100.00
24031;BME280;12240;51.142;22.486;2022-12-26T01:37:50;99764.81;;;2.62;100.00
24031;BME280;12240;51.142;22.486;2022-12-26T01:40:18;99730.34;;;2.38;100.00
24031;BME280;12240;51.142;22.486;2022-12-26T01:42:47;99735.13;;;2.46;100.00
24031;BME280;12240;51.142;22.486;2022-12-26T01:45:29;99768.94;;;2.66;100.00
24031;BME280;12240;51.142;22.486;2022-12-26T01:48:17;99757.28;;;2.70;100.00
24031;BME280;12240;51.142;22.486;2022-12-26T01:50:56;99710.25;;;2.52;100.00
24031;BME280;12240;51.142;22.486;2022-12-26T01:53:45;99730.06;;;2.71;100.00
24031;BME280;12240;51.142;22.486;2022-12-26T01:56:29;99770.63;;;2.81;100.00
24031;BME280;12240;51.142;22.486;2022-12-26T01:59:05;99733.06;;;2.65;100.00
24031;BME280;12240;51.142;22.486;2022-12-26T02:01:39;99742.84;;;2.77;100.00
24031;BME280;12240;51.142;22.486;2022-12-26T02:04:14;99743.59;;;2.79;100.00
24031;BME280;12240;51.142;22.486;2022-12-26T02:07:04;99766.69;;;2.88;100.00
24031;BME280;12240;51.142;22.486;2022-12-26T02:09:33;99688.69;;;2.47;100.00
24031;BME280;12240;51.142;22.486;2022-12-26T02:12:27;99753.34;;;2.91;100.00
24031;BME280;12240;51.142;22.486;2022-12-26T02:15:14;99735.22;;;2.87;100.00
24031;BME280;12240;51.142;22.486;2022-12-26T02:17:43;99739.91;;;2.96;100.00
24031;BME280;12240;51.142;22.486;2022-12-26T02:23:32;99709.38;;;2.93;100.00
24031;BME280;12240;51.142;22.486;2022-12-26T02:32:28;99729.47;;;2.94;100.00
24031;BME280;12240;51.142;22.486;2022-12-26T02:35:35;99720.47;;;2.98;100.00
24031;BME280;12240;51.142;22.486;2022-12-26T02:56:36;99718.56;;;3.14;100.00
24031;BME280;12240;51.142;22.486;2022-12-26T02:59:56;99725.59;;;3.14;100.00
24031;BME280;12240;51.142;22.486;2022-12-26T03:05:49;99658.28;;;2.97;100.00
24031;BME280;12240;51.142;22.486;2022-12-26T03:08:46;99687.72;;;3.16;100.00
24031;BME280;12240;51.142;22.486;2022-12-26T03:11:39;99706.50;;;3.24;100.00
24031;BME280;12240;51.142;22.486;2022-12-26T03:14:51;99694.31;;;3.09;100.00
24031;BME280;12240;51.142;22.486;2022-12-26T03:17:40;99715.03;;;3.28;100.00
24031;BME280;12240;51.142;22.486;2022-12-26T03:20:35;99719.84;;;3.21;100.00
24031;BME280;12240;51.142;22.486;2022-12-26T03:23:12;99692.69;;;3.21;100.00
24031;BME280;12240;51.142;22.486;2022-12-26T03:26:05;99719.06;;;3.33;100.00
24031;BME280;12240;51.142;22.486;2022-12-26T03:28:53;99716.44;;;3.33;100.00
24031;BME280;12240;51.142;22.486;2022-12-26T03:31:46;99710.53;;;3.30;100.00
24031;BME280;12240;51.142;22.486;2022-12-26T03:34:16;99711.25;;;3.32;100.00
24031;BME280;12240;51.142;22.486;2022-12-26T03:37:44;99679.22;;;3.25;100.00
24031;BME280;12240;51.142;22.486;2022-12-26T03:40:59;99642.53;;;3.10;100.00
24031;BME280;12240;51.142;22.486;2022-12-26T03:50:34;99689.81;;;3.38;100.00
24031;BME280;12240;51.142;22.486;2022-12-26T03:57:09;99682.88;;;3.37;100.00
24031;BME280;12240;51.142;22.486;2022-12-26T04:00:10;99653.13;;;3.22;100.00
24031;BME280;12240;51.142;22.486;2022-12-26T04:03:06;99624.97;;;3.10;100.00
24031;BME280;12240;51.142;22.486;2022-12-26T04:05:58;99672.88;;;3.42;100.00
24031;BME280;12240;51.142;22.486;2022-12-26T04:08:54;99662.25;;;3.43;100.00
24031;BME280;12240;51.142;22.486;2022-12-26T04:11:45;99641.47;;;3.39;100.00
24031;BME280;12240;51.142;22.486;2022-12-26T04:14:53;99638.66;;;3.42;100.00
24031;BME280;12240;51.142;22.486;2022-12-26T04:18:10;99654.44;;;3.42;100.00
24031;BME280;12240;51.142;22.486;2022-12-26T04:24:17;99637.81;;;3.41;100.00
24031;BME280;12240;51.142;22.486;2022-12-26T04:27:07;99632.66;;;3.40;100.00
24031;BME280;12240;51.142;22.486;2022-12-26T04:29:57;99623.59;;;3.44;100.00
24031;BME280;12240;51.142;22.486;2022-12-26T04:32:48;99595.38;;;3.33;100.00
24031;BME280;12240;51.142;22.486;2022-12-26T04:35:58;99584.53;;;3.38;100.00
24031;BME280;12240;51.142;22.486;2022-12-26T04:38:56;99555.44;;;3.14;100.00
24031;BME280;12240;51.142;22.486;2022-12-26T04:41:47;99601.91;;;3.40;100.00
24031;BME280;12240;51.142;22.486;2022-12-26T04:44:36;99584.75;;;3.35;100.00
24031;BME280;12240;51.142;22.486;2022-12-26T04:47:07;99573.13;;;3.37;100.00
24031;BME280;12240;51.142;22.486;2022-12-26T04:49:43;99524.78;;;3.13;100.00
24031;BME280;12240;51.142;22.486;2022-12-26T04:52:31;99552.31;;;3.34;100.00
24031;BME280;12240;51.142;22.486;2022-12-26T04:55:18;99538.28;;;3.34;100.00
24031;BME280;12240;51.142;22.486;2022-12-26T04:57:47;99494.28;;;3.11;100.00
24031;BME280;12240;51.142;22.486;2022-12-26T05:00:16;99506.59;;;3.23;100.00
24031;BME280;12240;51.142;22.486;2022-12-26T05:02:45;99485.13;;;3.04;100.00
24031;BME280;12240;51.142;22.486;2022-12-26T05:05:40;99466.81;;;3.02;100.00
24031;BME280;12240;51.142;22.486;2022-12-26T05:11:25;99476.16;;;3.06;100.00
24031;BME280;12240;51.142;22.486;2022-12-26T05:13:56;99451.75;;;3.04;100.00
24031;BME280;12240;51.142;22.486;2022-12-26T05:16:26;99500.41;;;3.36;100.00
24031;BME280;12240;51.142;22.486;2022-12-26T05:19:16;99456.19;;;3.16;100.00
24031;BME280;12240;51.142;22.486;2022-12-26T05:22:05;99455.25;;;3.17;100.00
24031;BME280;12240;51.142;22.486;2022-12-26T05:24:52;99436.06;;;3.15;100.00
24031;BME280;12240;51.142;22.486;2022-12-26T05:27:42;99445.97;;;3.12;100.00
24031;BME280;12240;51.142;22.486;2022-12-26T05:30:30;99500.31;;;3.38;100.00
24031;BME280;12240;51.142;22.486;2022-12-26T05:32:58;99510.72;;;3.39;100.00
24031;BME280;12240;51.142;22.486;2022-12-26T05:35:47;99473.66;;;3.17;100.00
24031;BME280;12240;51.142;22.486;2022-12-26T05:38:15;99505.06;;;3.45;100.00
24031;BME280;12240;51.142;22.486;2022-12-26T05:40:44;99461.78;;;3.24;100.00
24031;BME280;12240;51.142;22.486;2022-12-26T05:43:13;99501.56;;;3.45;100.00
24031;BME280;12240;51.142;22.486;2022-12-26T05:45:41;99502.31;;;3.47;100.00
24031;BME280;12240;51.142;22.486;2022-12-26T05:48:10;99477.00;;;3.32;100.00
24031;BME280;12240;51.142;22.486;2022-12-26T05:50:42;99451.47;;;3.21;100.00
24031;BME280;12240;51.142;22.486;2022-12-26T05:53:10;99484.91;;;3.44;100.00
24031;BME280;12240;51.142;22.486;2022-12-26T05:55:39;99484.81;;;3.46;100.00
24031;BME280;12240;51.142;22.486;2022-12-26T05:58:07;99488.28;;;3.46;100.00
24031;BME280;12240;51.142;22.486;2022-12-26T06:00:36;99477.25;;;3.41;100.00
24031;BME280;12240;51.142;22.486;2022-12-26T06:03:05;99476.63;;;3.50;100.00
24031;BME280;12240;51.142;22.486;2022-12-26T06:05:33;99489.78;;;3.50;100.00
24031;BME280;12240;51.142;22.486;2022-12-26T06:08:02;99480.28;;;3.48;100.00
24031;BME280;12240;51.142;22.486;2022-12-26T06:10:31;99487.03;;;3.52;100.00
24031;BME280;12240;51.142;22.486;2022-12-26T06:13:00;99489.69;;;3.52;100.00
24031;BME280;12240;51.142;22.486;2022-12-26T06:15:28;99489.03;;;3.48;100.00
24031;BME280;12240;51.142;22.486;2022-12-26T06:17:57;99471.53;;;3.47;100.00
24031;BME280;12240;51.142;22.486;2022-12-26T06:20:26;99456.53;;;3.37;100.00
24031;BME280;12240;51.142;22.486;2022-12-26T06:22:55;99485.44;;;3.49;100.00
24031;BME280;12240;51.142;22.486;2022-12-26T06:25:23;99449.34;;;3.26;100.00
24031;BME280;12240;51.142;22.486;2022-12-26T06:27:52;99441.66;;;3.23;100.00
24031;BME280;12240;51.142;22.486;2022-12-26T06:30:21;99496.41;;;3.56;100.00
24031;BME280;12240;51.142;22.486;2022-12-26T06:32:50;99456.06;;;3.30;100.00
24031;BME280;12240;51.142;22.486;2022-12-26T06:35:19;99497.69;;;3.50;100.00
24031;BME280;12240;51.142;22.486;2022-12-26T06:37:48;99493.22;;;3.51;100.00
24031;BME280;12240;51.142;22.486;2022-12-26T06:40:18;99479.56;;;3.58;100.00
24031;BME280;12240;51.142;22.486;2022-12-26T06:42:47;99427.56;;;3.37;100.00
24031;BME280;12240;51.142;22.486;2022-12-26T06:45:18;99458.50;;;3.58;100.00
24031;BME280;12240;51.142;22.486;2022-12-26T06:47:47;99459.47;;;3.58;100.00
24031;BME280;12240;51.142;22.486;2022-12-26T06:50:17;99431.75;;;3.39;100.00
24031;BME280;12240;51.142;22.486;2022-12-26T06:52:45;99457.63;;;3.58;100.00
24031;BME280;12240;51.142;22.486;2022-12-26T06:55:15;99449.97;;;3.55;100.00
24031;BME280;12240;51.142;22.486;2022-12-26T06:57:44;99420.38;;;3.51;100.00
24031;BME280;12240;51.142;22.486;2022-12-26T07:00:14;99451.56;;;3.58;100.00
24031;BME280;12240;51.142;22.486;2022-12-26T07:02:43;99396.28;;;3.32;100.00
24031;BME280;12240;51.142;22.486;2022-12-26T07:05:12;99451.97;;;3.64;100.00
24031;BME280;12240;51.142;22.486;2022-12-26T07:07:41;99439.84;;;3.62;100.00
24031;BME280;12240;51.142;22.486;2022-12-26T07:10:10;99441.94;;;3.69;100.00
24031;BME280;12240;51.142;22.486;2022-12-26T07:12:39;99400.19;;;3.39;100.00
24031;BME280;12240;51.142;22.486;2022-12-26T07:15:08;99445.09;;;3.74;100.00
24031;BME280;12240;51.142;22.486;2022-12-26T07:17:37;99440.88;;;3.72;100.00
24031;BME280;12240;51.142;22.486;2022-12-26T07:20:07;99448.25;;;3.79;100.00
24031;BME280;12240;51.142;22.486;2022-12-26T07:22:38;99443.81;;;3.80;100.00
24031;BME280;12240;51.142;22.486;2022-12-26T07:25:10;99435.69;;;3.83;100.00
24031;BME280;12240;51.142;22.486;2022-12-26T07:27:40;99421.28;;;3.76;100.00
24031;BME280;12240;51.142;22.486;2022-12-26T07:30:09;99391.28;;;3.66;100.00
24031;BME280;12240;51.142;22.486;2022-12-26T07:32:38;99382.25;;;3.57;100.00
24031;BME280;12240;51.142;22.486;2022-12-26T07:35:07;99442.50;;;3.98;100.00
24031;BME280;12240;51.142;22.486;2022-12-26T07:37:36;99450.91;;;4.03;100.00
24031;BME280;12240;51.142;22.486;2022-12-26T07:40:05;99440.06;;;4.07;100.00
24031;BME280;12240;51.142;22.486;2022-12-26T07:42:35;99444.78;;;4.15;100.00
24031;BME280;12240;51.142;22.486;2022-12-26T07:45:08;99442.63;;;4.20;100.00
24031;BME280;12240;51.142;22.486;2022-12-26T07:47:37;99436.94;;;4.26;100.00
24031;BME280;12240;51.142;22.486;2022-12-26T07:50:06;99411.72;;;4.11;100.00
24031;BME280;12240;51.142;22.486;2022-12-26T07:52:36;99390.66;;;3.98;100.00
24031;BME280;12240;51.142;22.486;2022-12-26T07:55:05;99449.56;;;4.33;100.00
24031;BME280;12240;51.142;22.486;2022-12-26T07:57:34;99411.59;;;4.12;100.00
24031;BME280;12240;51.142;22.486;2022-12-26T08:00:16;99435.16;;;4.26;100.00
24031;BME280;12240;51.142;22.486;2022-12-26T08:02:50;99435.66;;;4.31;100.00
24031;BME280;12240;51.142;22.486;2022-12-26T08:05:20;99395.03;;;4.10;100.00
24031;BME280;12240;51.142;22.486;2022-12-26T08:07:49;99418.59;;;4.24;100.00
24031;BME280;12240;51.142;22.486;2022-12-26T08:10:18;99425.56;;;4.25;100.00
24031;BME280;12240;51.142;22.486;2022-12-26T08:12:47;99410.19;;;4.19;100.00
24031;BME280;12240;51.142;22.486;2022-12-26T08:15:16;99361.56;;;4.00;100.00
24031;BME280;12240;51.142;22.486;2022-12-26T08:17:44;99409.91;;;4.35;100.00
24031;BME280;12240;51.142;22.486;2022-12-26T08:20:13;99359.50;;;4.16;100.00
24031;BME280;12240;51.142;22.486;2022-12-26T08:22:42;99388.13;;;4.44;100.00
24031;BME280;12240;51.142;22.486;2022-12-26T08:25:12;99398.22;;;4.50;100.00
24031;BME280;12240;51.142;22.486;2022-12-26T08:27:47;99396.09;;;4.55;100.00
24031;BME280;12240;51.142;22.486;2022-12-26T08:30:17;99376.66;;;4.56;100.00
24031;BME280;12240;51.142;22.486;2022-12-26T08:32:47;99364.81;;;4.61;100.00
24031;BME280;12240;51.142;22.486;2022-12-26T08:35:18;99376.72;;;4.67;100.00
24031;BME280;12240;51.142;22.486;2022-12-26T08:37:47;99357.53;;;4.65;100.00
24031;BME280;12240;51.142;22.486;2022-12-26T08:40:17;99357.16;;;4.69;100.00
24031;BME280;12240;51.142;22.486;2022-12-26T08:43:06;99344.72;;;4.71;100.00
24031;BME280;12240;51.142;22.486;2022-12-26T08:48:31;99345.91;;;4.78;100.00
24031;BME280;12240;51.142;22.486;2022-12-26T08:51:05;99291.59;;;4.65;100.00
24031;BME280;12240;51.142;22.486;2022-12-26T08:53:36;99267.13;;;4.63;100.00
24031;BME280;12240;51.142;22.486;2022-12-26T08:56:09;99309.88;;;4.90;100.00
24031;BME280;12240;51.142;22.486;2022-12-26T08:58:39;99314.28;;;5.01;100.00
24031;BME280;12240;51.142;22.486;2022-12-26T09:01:26;99287.53;;;4.94;100.00
24031;BME280;12240;51.142;22.486;2022-12-26T09:04:01;99300.03;;;5.03;100.00
24031;BME280;12240;51.142;22.486;2022-12-26T09:06:33;99286.72;;;5.05;100.00
24031;BME280;12240;51.142;22.486;2022-12-26T09:09:08;99298.81;;;5.18;100.00
24031;BME280;12240;51.142;22.486;2022-12-26T09:11:40;99289.13;;;5.19;100.00
24031;BME280;12240;51.142;22.486;2022-12-26T09:14:12;99278.56;;;5.19;100.00
24031;BME280;12240;51.142;22.486;2022-12-26T09:16:43;99294.03;;;5.34;100.00
24031;BME280;12240;51.142;22.486;2022-12-26T09:19:19;99305.53;;;5.33;100.00
24031;BME280;12240;51.142;22.486;2022-12-26T09:21:49;99303.59;;;5.35;100.00
24031;BME280;12240;51.142;22.486;2022-12-26T09:24:41;99274.81;;;5.32;100.00
24031;BME280;12240;51.142;22.486;2022-12-26T09:27:10;99286.44;;;5.41;100.00
24031;BME280;12240;51.142;22.486;2022-12-26T09:29:41;99301.22;;;5.43;100.00
24031;BME280;12240;51.142;22.486;2022-12-26T09:32:10;99303.47;;;5.48;100.00
24031;BME280;12240;51.142;22.486;2022-12-26T09:34:40;99240.03;;;5.16;100.00
24031;BME280;12240;51.142;22.486;2022-12-26T09:37:12;99284.63;;;5.52;100.00
24031;BME280;12240;51.142;22.486;2022-12-26T09:39:42;99240.38;;;5.34;100.00
24031;BME280;12240;51.142;22.486;2022-12-26T09:45:57;99231.44;;;5.57;100.00
24031;BME280;12240;51.142;22.486;2022-12-26T09:49:15;99239.56;;;5.76;100.00
24031;BME280;12240;51.142;22.486;2022-12-26T09:52:21;99245.19;;;5.82;100.00
24031;BME280;12240;51.142;22.486;2022-12-26T09:54:55;99246.25;;;5.80;100.00
24031;BME280;12240;51.142;22.486;2022-12-26T09:57:41;99254.16;;;5.91;100.00
24031;BME280;12240;51.142;22.486;2022-12-26T10:00:19;99264.94;;;5.99;100.00
24031;BME280;12240;51.142;22.486;2022-12-26T10:02:52;99234.84;;;5.79;100.00
24031;BME280;12240;51.142;22.486;2022-12-26T10:05:32;99231.97;;;5.71;100.00
24031;BME280;12240;51.142;22.486;2022-12-26T10:08:37;99285.94;;;6.01;100.00
24031;BME280;12240;51.142;22.486;2022-12-26T10:11:28;99266.56;;;5.79;100.00
24031;BME280;12240;51.142;22.486;2022-12-26T10:16:51;99304.69;;;6.09;100.00
24031;BME280;12240;51.142;22.486;2022-12-26T10:20:06;99280.78;;;6.10;100.00
24031;BME280;12240;51.142;22.486;2022-12-26T10:25:45;99251.38;;;6.24;100.00
24031;BME280;12240;51.142;22.486;2022-12-26T10:31:41;99235.31;;;6.37;100.00
24031;BME280;12240;51.142;22.486;2022-12-26T10:34:33;99219.88;;;6.42;100.00
24031;BME280;12240;51.142;22.486;2022-12-26T10:37:38;99202.66;;;6.47;100.00
24031;BME280;12240;51.142;22.486;2022-12-26T10:40:37;99210.91;;;6.54;100.00
24031;BME280;12240;51.142;22.486;2022-12-26T10:43:30;99203.69;;;6.56;100.00
24031;BME280;12240;51.142;22.486;2022-12-26T10:48:46;99175.91;;;6.41;100.00
24031;BME280;12240;51.142;22.486;2022-12-26T10:51:15;99193.28;;;6.64;100.00
24031;BME280;12240;51.142;22.486;2022-12-26T10:53:49;99188.13;;;6.62;100.00
24031;BME280;12240;51.142;22.486;2022-12-26T10:56:21;99177.16;;;6.67;100.00
24031;BME280;12240;51.142;22.486;2022-12-26T10:58:59;99188.97;;;6.63;100.00
24031;BME280;12240;51.142;22.486;2022-12-26T11:01:30;99189.84;;;6.73;100.00
24031;BME280;12240;51.142;22.486;2022-12-26T11:04:05;99180.63;;;6.67;100.00
24031;BME280;12240;51.142;22.486;2022-12-26T11:06:38;99155.50;;;6.52;100.00
24031;BME280;12240;51.142;22.486;2022-12-26T11:09:39;99151.91;;;6.53;100.00
24031;BME280;12240;51.142;22.486;2022-12-26T11:12:36;99192.03;;;6.68;100.00
24031;BME280;12240;51.142;22.486;2022-12-26T11:17:51;99132.16;;;6.37;100.00
24031;BME280;12240;51.142;22.486;2022-12-26T11:20:27;99205.84;;;6.71;100.00
24031;BME280;12240;51.142;22.486;2022-12-26T11:23:28;99192.59;;;6.62;100.00
24031;BME280;12240;51.142;22.486;2022-12-26T11:26:00;99186.25;;;6.74;100.00
24031;BME280;12240;51.142;22.486;2022-12-26T11:28:35;99108.13;;;6.40;100.00
24031;BME280;12240;51.142;22.486;2022-12-26T11:31:06;99179.97;;;6.75;100.00
24031;BME280;12240;51.142;22.486;2022-12-26T11:33:41;99142.09;;;6.44;100.00
24031;BME280;12240;51.142;22.486;2022-12-26T11:36:21;99190.53;;;6.75;100.00
24031;BME280;12240;51.142;22.486;2022-12-26T11:39:02;99207.97;;;6.77;100.00
24031;BME280;12240;51.142;22.486;2022-12-26T11:41:37;99190.13;;;6.79;100.00
24031;BME280;12240;51.142;22.486;2022-12-26T11:44:12;99183.75;;;6.82;100.00
24031;BME280;12240;51.142;22.486;2022-12-26T11:47:08;99053.47;;;6.20;100.00
24031;BME280;12240;51.142;22.486;2022-12-26T11:52:45;99169.44;;;6.84;100.00
24031;BME280;12240;51.142;22.486;2022-12-26T11:55:27;99182.13;;;6.90;100.00
24031;BME280;12240;51.142;22.486;2022-12-26T11:58:01;99188.56;;;6.97;100.00
24031;BME280;12240;51.142;22.486;2022-12-26T12:00:41;99167.50;;;6.96;100.00
24031;BME280;12240;51.142;22.486;2022-12-26T12:03:35;99159.28;;;6.99;100.00
24031;BME280;12240;51.142;22.486;2022-12-26T12:23:46;99155.03;;;7.17;100.00
24031;BME280;12240;51.142;22.486;2022-12-26T12:26:38;99140.75;;;6.99;100.00
24031;BME280;12240;51.142;22.486;2022-12-26T12:32:45;99131.81;;;6.90;100.00
24031;BME280;12240;51.142;22.486;2022-12-26T12:35:36;99149.16;;;7.14;100.00
24031;BME280;12240;51.142;22.486;2022-12-26T12:41:34;99142.34;;;7.40;100.00
24031;BME280;12240;51.142;22.486;2022-12-26T12:44:10;99145.16;;;7.38;100.00
24031;BME280;12240;51.142;22.486;2022-12-26T12:49:58;99112.25;;;7.22;100.00
24031;BME280;12240;51.142;22.486;2022-12-26T12:52:54;99129.13;;;7.40;100.00
24031;BME280;12240;51.142;22.486;2022-12-26T12:58:36;99135.97;;;7.61;100.00
24031;BME280;12240;51.142;22.486;2022-12-26T13:01:31;99078.94;;;7.29;100.00
24031;BME280;12240;51.142;22.486;2022-12-26T13:04:28;99110.88;;;7.56;100.00
24031;BME280;12240;51.142;22.486;2022-12-26T13:07:08;99133.47;;;7.60;100.00
24031;BME280;12240;51.142;22.486;2022-12-26T13:09:49;99072.69;;;7.39;100.00
24031;BME280;12240;51.142;22.486;2022-12-26T13:12:27;99123.25;;;7.55;100.00
24031;BME280;12240;51.142;22.486;2022-12-26T13:15:07;99107.78;;;7.60;100.00
24031;BME280;12240;51.142;22.486;2022-12-26T13:26:26;99106.38;;;7.66;100.00
24031;BME280;12240;51.142;22.486;2022-12-26T13:29:16;99098.84;;;7.71;100.00
24031;BME280;12240;51.142;22.486;2022-12-26T13:31:46;99068.75;;;7.72;100.00
24031;BME280;12240;51.142;22.486;2022-12-26T13:34:18;99110.53;;;8.06;100.00
24031;BME280;12240;51.142;22.486;2022-12-26T13:36:52;99095.88;;;8.02;100.00
24031;BME280;12240;51.142;22.486;2022-12-26T13:39:33;99062.00;;;7.77;100.00
24031;BME280;12240;51.142;22.486;2022-12-26T13:56:01;99084.09;;;7.49;100.00
24031;BME280;12240;51.142;22.486;2022-12-26T13:58:41;99064.44;;;7.42;100.00
24031;BME280;12240;51.142;22.486;2022-12-26T14:17:24;99103.47;;;7.59;100.00
24031;BME280;12240;51.142;22.486;2022-12-26T14:20:29;99113.78;;;7.62;100.00
24031;BME280;12240;51.142;22.486;2022-12-26T14:38:37;99136.53;;;7.46;100.00
24031;BME280;12240;51.142;22.486;2022-12-26T14:41:14;99073.50;;;7.30;100.00
24031;BME280;12240;51.142;22.486;2022-12-26T14:47:00;99119.25;;;7.70;100.00
24031;BME280;12240;51.142;22.486;2022-12-26T14:54:54;99091.06;;;7.41;100.00
24031;BME280;12240;51.142;22.486;2022-12-26T14:57:46;99051.19;;;7.04;100.00
24031;BME280;12240;51.142;22.486;2022-12-26T15:00:27;99056.91;;;7.09;100.00
24031;BME280;12240;51.142;22.486;2022-12-26T15:05:38;99099.44;;;7.27;100.00
24031;BME280;12240;51.142;22.486;2022-12-26T15:08:47;99115.59;;;7.33;100.00
24031;BME280;12240;51.142;22.486;2022-12-26T15:32:36;99106.09;;;7.21;100.00
24031;BME280;12240;51.142;22.486;2022-12-26T15:38:14;99105.41;;;7.09;100.00
24031;BME280;12240;51.142;22.486;2022-12-26T15:44:07;99098.03;;;7.13;100.00
24031;BME280;12240;51.142;22.486;2022-12-26T15:50:32;99084.47;;;6.97;100.00
24031;BME280;12240;51.142;22.486;2022-12-26T15:53:37;99121.47;;;7.27;100.00
24031;BME280;12240;51.142;22.486;2022-12-26T15:59:48;99119.63;;;7.28;100.00
24031;BME280;12240;51.142;22.486;2022-12-26T16:14:02;99123.69;;;7.22;100.00
24031;BME280;12240;51.142;22.486;2022-12-26T16:16:36;99073.34;;;7.13;100.00
24031;BME280;12240;51.142;22.486;2022-12-26T16:19:19;99079.47;;;7.23;100.00
24031;BME280;12240;51.142;22.486;2022-12-26T16:21:54;99083.25;;;7.30;100.00
24031;BME280;12240;51.142;22.486;2022-12-26T16:24:44;99080.03;;;7.26;100.00
24031;BME280;12240;51.142;22.486;2022-12-26T16:27:17;99118.38;;;7.60;100.00
24031;BME280;12240;51.142;22.486;2022-12-26T16:30:01;99125.94;;;7.65;100.00
24031;BME280;12240;51.142;22.486;2022-12-26T16:32:40;99126.06;;;7.63;100.00
24031;BME280;12240;51.142;22.486;2022-12-26T16:35:22;99078.78;;;7.40;100.00
24031;BME280;12240;51.142;22.486;2022-12-26T16:37:53;99112.25;;;7.60;100.00
24031;BME280;12240;51.142;22.486;2022-12-26T16:40:34;99107.66;;;7.62;100.00
24031;BME280;12240;51.142;22.486;2022-12-26T16:45:56;99096.38;;;7.60;100.00
24031;BME280;12240;51.142;22.486;2022-12-26T16:48:32;99065.13;;;7.44;100.00
24031;BME280;12240;51.142;22.486;2022-12-26T16:51:06;99094.13;;;7.65;100.00
24031;BME280;12240;51.142;22.486;2022-12-26T16:56:24;99090.09;;;7.70;100.00
24031;BME280;12240;51.142;22.486;2022-12-26T16:59:08;99068.75;;;7.53;100.00
24031;BME280;12240;51.142;22.486;2022-12-26T17:01:55;99087.44;;;7.61;100.00
24031;BME280;12240;51.142;22.486;2022-12-26T17:04:28;99091.34;;;7.66;100.00
24031;BME280;12240;51.142;22.486;2022-12-26T17:07:13;99022.03;;;7.33;100.00
24031;BME280;12240;51.142;22.486;2022-12-26T17:09:54;99008.66;;;7.44;100.00
24031;BME280;12240;51.142;22.486;2022-12-26T17:12:32;99058.28;;;7.70;100.00
24031;BME280;12240;51.142;22.486;2022-12-26T17:15:05;99002.81;;;7.40;100.00
24031;BME280;12240;51.142;22.486;2022-12-26T17:17:38;99047.28;;;7.56;100.00
24031;BME280;12240;51.142;22.486;2022-12-26T17:20:40;99049.78;;;7.57;100.00
24031;BME280;12240;51.142;22.486;2022-12-26T17:23:36;98987.78;;;7.22;100.00
24031;BME280;12240;51.142;22.486;2022-12-26T17:26:20;99004.94;;;7.27;100.00
24031;BME280;12240;51.142;22.486;2022-12-26T17:28:50;99048.97;;;7.47;100.00